createdAt,value
2023-03-19T00:01:10.030Z,93520.44
2023-03-19T00:03:36.426Z,93525.03
2023-03-19T00:06:02.956Z,93552.63
2023-03-19T00:08:29.555Z,93536.53
2023-03-19T00:10:56.071Z,93528.66
2023-03-19T00:13:22.505Z,93526.16
2023-03-19T00:15:48.950Z,93522.91
2023-03-19T00:18:16.089Z,93544.38
2023-03-19T00:20:43.365Z,93526.31
2023-03-19T00:23:09.795Z,93529.88
2023-03-19T00:26:12.592Z,93550.81
2023-03-19T00:28:39.052Z,93542.78
2023-03-19T00:31:13.757Z,93547.78
2023-03-19T00:33:40.429Z,93532.75
2023-03-19T00:36:07.972Z,93550.81
2023-03-19T00:38:36.045Z,93529.88
2023-03-19T00:41:13.259Z,93554.41
2023-03-19T00:43:40.026Z,93556.00
2023-03-19T00:46:07.154Z,93556.09
2023-03-19T00:48:33.764Z,93546.50
2023-03-19T00:51:09.249Z,93554.25
2023-03-19T00:53:40.311Z,93513.59
2023-03-19T00:56:07.662Z,93529.53
2023-03-19T00:58:34.891Z,93518.06
2023-03-19T01:01:14.541Z,93558.88
2023-03-19T01:03:40.967Z,93544.03
2023-03-19T01:06:07.590Z,93547.09
2023-03-19T01:08:34.061Z,93536.00
2023-03-19T01:11:26.781Z,93562.47
2023-03-19T01:13:53.584Z,93534.88
2023-03-19T01:16:19.986Z,93540.06
2023-03-19T01:18:46.508Z,93546.38
2023-03-19T01:21:12.993Z,93560.47
2023-03-19T01:23:39.741Z,93539.19
2023-03-19T01:26:06.583Z,93547.97
2023-03-19T01:28:32.953Z,93545.63
2023-03-19T01:31:01.820Z,93573.34
2023-03-19T01:33:28.284Z,93545.81
2023-03-19T01:35:54.912Z,93581.69
2023-03-19T01:38:21.378Z,93556.75
2023-03-19T01:40:48.547Z,93587.09
2023-03-19T01:43:23.473Z,93569.16
2023-03-19T01:45:52.993Z,93578.78
2023-03-19T01:48:37.033Z,93572.59
2023-03-19T01:51:05.968Z,93551.94
2023-03-19T01:53:35.232Z,93577.19
2023-03-19T01:56:11.445Z,93577.91
2023-03-19T01:58:40.178Z,93547.91
2023-03-19T02:01:06.573Z,93560.34
2023-03-19T02:03:34.076Z,93572.91
2023-03-19T02:06:01.025Z,93564.56
2023-03-19T02:08:28.801Z,93555.56
2023-03-19T02:10:56.687Z,93556.69
2023-03-19T02:13:23.257Z,93572.53
2023-03-19T02:15:50.986Z,93561.16
2023-03-19T02:18:17.729Z,93560.47
2023-03-19T02:20:53.854Z,93579.13
2023-03-19T02:23:35.906Z,93583.78
2023-03-19T02:26:14.898Z,93590.97
2023-03-19T02:28:48.432Z,93587.56
2023-03-19T02:31:16.009Z,93591.59
2023-03-19T02:33:42.607Z,93595.75
2023-03-19T02:36:17.890Z,93568.97
2023-03-19T02:38:46.476Z,93587.38
2023-03-19T02:41:12.866Z,93578.38
2023-03-19T02:43:41.290Z,93593.00
2023-03-19T02:46:12.034Z,93575.78
2023-03-19T02:48:39.369Z,93605.13
2023-03-19T02:51:05.997Z,93584.69
2023-03-19T02:53:34.652Z,93594.41
2023-03-19T02:56:01.575Z,93603.03
2023-03-19T02:58:28.028Z,93607.88
2023-03-19T03:00:54.520Z,93598.03
2023-03-19T03:03:21.264Z,93598.03
2023-03-19T03:05:47.685Z,93600.25
2023-03-19T03:08:14.088Z,93615.50
2023-03-19T03:10:40.550Z,93611.13
2023-03-19T03:13:07.111Z,93622.94
2023-03-19T03:15:40.800Z,93618.13
2023-03-19T03:18:07.193Z,93619.72
2023-03-19T03:20:33.822Z,93619.72
2023-03-19T03:23:00.917Z,93621.75
2023-03-19T03:25:27.325Z,93622.94
2023-03-19T03:27:53.708Z,93625.75
2023-03-19T03:30:20.356Z,93640.63
2023-03-19T03:32:46.845Z,93628.94
2023-03-19T03:35:13.428Z,93633.38
2023-03-19T03:37:39.836Z,93653.28
2023-03-19T03:40:07.992Z,93631.97
2023-03-19T03:42:36.729Z,93649.81
2023-03-19T03:45:03.589Z,93661.47
2023-03-19T03:47:30.056Z,93647.44
2023-03-19T03:49:56.738Z,93659.47
2023-03-19T03:52:23.860Z,93663.31
2023-03-19T03:54:50.532Z,93660.06
2023-03-19T03:57:16.896Z,93654.63
2023-03-19T03:59:43.561Z,93668.72
2023-03-19T04:02:10.022Z,93659.84
2023-03-19T04:04:36.444Z,93664.31
2023-03-19T04:07:02.872Z,93654.66
2023-03-19T04:09:38.704Z,93679.16
2023-03-19T04:12:05.456Z,93663.09
2023-03-19T04:14:31.851Z,93665.09
2023-03-19T04:16:58.293Z,93662.72
2023-03-19T04:19:24.748Z,93670.75
2023-03-19T04:21:51.172Z,93682.00
2023-03-19T04:24:17.576Z,93670.34
2023-03-19T04:26:44.253Z,93674.53
2023-03-19T04:29:10.657Z,93680.78
2023-03-19T04:31:38.143Z,93654.66
2023-03-19T04:34:04.588Z,93670.34
2023-03-19T04:36:31.208Z,93666.31
2023-03-19T04:38:57.567Z,93696.47
2023-03-19T04:41:24.095Z,93674.34
2023-03-19T04:43:50.478Z,93655.47
2023-03-19T04:46:18.884Z,93675.19
2023-03-19T04:48:45.446Z,93671.53
2023-03-19T04:51:11.956Z,93699.66
2023-03-19T04:53:39.879Z,93696.00
2023-03-19T04:56:07.911Z,93700.03
2023-03-19T04:58:34.486Z,93686.72
2023-03-19T05:01:07.011Z,93708.81
2023-03-19T05:03:33.736Z,93694.72
2023-03-19T05:06:00.442Z,93697.91
2023-03-19T05:08:26.824Z,93722.00
2023-03-19T05:10:53.240Z,93708.31
2023-03-19T05:13:21.615Z,93722.16
2023-03-19T05:15:48.447Z,93721.09
2023-03-19T05:18:15.336Z,93731.13
2023-03-19T05:20:42.584Z,93726.66
2023-03-19T05:23:08.931Z,93723.47
2023-03-19T05:25:35.358Z,93723.41
2023-03-19T05:28:02.820Z,93746.03
2023-03-19T05:30:29.789Z,93762.59
2023-03-19T05:32:59.936Z,93735.63
2023-03-19T05:35:27.661Z,93741.88
2023-03-19T05:37:54.123Z,93738.25
2023-03-19T05:40:21.028Z,93746.59
2023-03-19T05:42:47.852Z,93734.97
2023-03-19T05:45:14.692Z,93755.69
2023-03-19T05:47:41.144Z,93724.59
2023-03-19T05:50:08.357Z,93738.25
2023-03-19T05:52:34.723Z,93753.88
2023-03-19T05:55:01.477Z,93759.44
2023-03-19T05:57:28.768Z,93743.38
2023-03-19T05:59:55.164Z,93739.38
2023-03-19T06:02:22.014Z,93745.47
2023-03-19T06:04:48.449Z,93753.19
2023-03-19T06:07:14.830Z,93758.72
2023-03-19T06:09:41.347Z,93765.53
2023-03-19T06:12:08.369Z,93778.53
2023-03-19T06:14:34.808Z,93773.34
2023-03-19T06:17:01.175Z,93766.56
2023-03-19T06:19:27.769Z,93767.63
2023-03-19T06:21:54.157Z,93796.91
2023-03-19T06:24:20.658Z,93782.47
2023-03-19T06:26:47.096Z,93804.53
2023-03-19T06:29:13.556Z,93779.19
2023-03-19T06:31:47.167Z,93780.03
2023-03-19T06:34:13.655Z,93804.19
2023-03-19T06:36:48.334Z,93796.53
2023-03-19T06:39:15.297Z,93798.00
2023-03-19T06:41:42.036Z,93820.72
2023-03-19T06:44:57.381Z,93810.69
2023-03-19T06:47:23.831Z,93793.31
2023-03-19T06:49:50.388Z,93811.50
2023-03-19T06:52:17.334Z,93807.56
2023-03-19T06:54:43.797Z,93819.28
2023-03-19T06:57:10.313Z,93810.06
2023-03-19T06:59:36.815Z,93804.84
2023-03-19T07:02:03.405Z,93833.84
2023-03-19T07:04:30.410Z,93797.66
2023-03-19T07:06:56.881Z,93812.97
2023-03-19T07:09:23.507Z,93816.56
2023-03-19T07:11:49.969Z,93813.75
2023-03-19T07:14:16.408Z,93830.69
2023-03-19T07:16:42.836Z,93813.75
2023-03-19T07:19:16.475Z,93833.94
2023-03-19T07:21:56.206Z,93834.69
2023-03-19T07:24:22.647Z,93825.47
2023-03-19T07:26:57.312Z,93827.03
2023-03-19T07:29:32.809Z,93820.66
2023-03-19T07:32:23.349Z,93848.81
2023-03-19T07:34:50.851Z,93806.19
2023-03-19T07:37:17.638Z,93842.78
2023-03-19T07:39:47.128Z,93834.75
2023-03-19T07:42:17.676Z,93813.81
2023-03-19T07:44:44.096Z,93833.94
2023-03-19T07:47:22.522Z,93829.13
2023-03-19T07:49:54.594Z,93836.38
2023-03-19T07:52:21.253Z,93831.94
2023-03-19T07:54:47.781Z,93835.53
2023-03-19T07:57:16.465Z,93836.38
2023-03-19T07:59:48.029Z,93856.91
2023-03-19T08:02:15.010Z,93856.09
2023-03-19T08:04:41.936Z,93839.59
2023-03-19T08:07:11.076Z,93825.91
2023-03-19T08:09:37.594Z,93840.03
2023-03-19T08:12:04.547Z,93820.69
2023-03-19T08:14:31.036Z,93826.72
2023-03-19T08:16:57.472Z,93834.38
2023-03-19T08:19:23.966Z,93828.31
2023-03-19T08:21:50.402Z,93844.03
2023-03-19T08:24:17.595Z,93849.25
2023-03-19T08:26:44.308Z,93854.03
2023-03-19T08:29:10.919Z,93840.78
2023-03-19T08:31:37.371Z,93849.66
2023-03-19T08:34:04.715Z,93845.16
2023-03-19T08:36:32.018Z,93861.63
2023-03-19T08:38:59.008Z,93677.56
2023-03-19T08:41:25.669Z,93863.28
2023-03-19T08:43:52.226Z,93849.59
2023-03-19T08:46:18.969Z,93859.25
2023-03-19T08:48:45.549Z,93855.41
2023-03-19T08:51:12.189Z,93849.78
2023-03-19T08:53:38.911Z,93847.09
2023-03-19T08:56:07.653Z,93865.66
2023-03-19T08:58:34.205Z,93852.31
2023-03-19T09:01:04.853Z,93865.78
2023-03-19T09:03:32.079Z,93861.50
2023-03-19T09:06:02.623Z,93865.84
2023-03-19T09:08:32.685Z,93864.03
2023-03-19T09:10:59.169Z,93835.72
2023-03-19T09:13:29.293Z,93870.53
2023-03-19T09:15:58.067Z,93847.50
2023-03-19T09:18:26.539Z,93841.06
2023-03-19T09:20:54.270Z,93866.88
2023-03-19T09:23:36.919Z,93857.88
2023-03-19T09:26:04.553Z,93850.06
2023-03-19T09:28:31.142Z,93860.41
2023-03-19T09:30:59.579Z,93865.13
2023-03-19T09:33:27.952Z,93843.91
2023-03-19T09:36:17.164Z,93862.22
2023-03-19T09:38:44.581Z,93837.13
2023-03-19T09:41:24.236Z,93834.28
2023-03-19T09:43:58.087Z,93859.72
2023-03-19T09:46:50.278Z,93850.00
2023-03-19T09:49:20.903Z,93861.34
2023-03-19T09:51:55.153Z,93851.19
2023-03-19T09:54:27.684Z,93847.31
2023-03-19T09:56:57.001Z,93831.84
2023-03-19T09:59:36.002Z,93837.78
2023-03-19T10:02:36.351Z,93855.38
2023-03-19T10:05:28.838Z,93848.66
2023-03-19T10:08:29.589Z,93844.78
2023-03-19T10:11:16.354Z,93831.59
2023-03-19T10:14:06.561Z,93837.81
2023-03-19T10:16:41.773Z,93825.34
2023-03-19T10:19:12.390Z,93822.22
2023-03-19T10:22:00.740Z,93795.31
2023-03-19T10:24:37.053Z,93821.28
2023-03-19T10:27:20.812Z,93831.34
2023-03-19T10:29:52.306Z,93824.63
2023-03-19T10:32:41.294Z,93823.84
2023-03-19T10:35:24.306Z,93825.13
2023-03-19T10:37:53.829Z,93793.00
2023-03-19T10:40:48.763Z,93807.44
2023-03-19T10:43:25.706Z,93827.97
2023-03-19T10:45:52.608Z,93821.53
2023-03-19T10:48:27.663Z,93812.44
2023-03-19T10:51:06.150Z,93788.50
2023-03-19T10:53:38.609Z,93795.41
2023-03-19T10:56:18.993Z,93813.16
2023-03-19T10:58:59.237Z,93812.59
2023-03-19T11:01:41.360Z,93809.78
2023-03-19T11:04:21.616Z,93807.69
2023-03-19T11:06:53.967Z,93775.97
2023-03-19T11:09:32.802Z,93806.41
2023-03-19T11:12:19.153Z,93785.16
2023-03-19T11:14:48.896Z,93777.59
2023-03-19T11:17:23.889Z,93797.75
2023-03-19T11:19:53.481Z,93793.81
2023-03-19T11:22:32.175Z,93794.19
2023-03-19T11:25:20.473Z,93773.41
2023-03-19T11:28:19.071Z,93780.31
2023-03-19T11:31:05.937Z,93764.88
2023-03-19T11:33:47.492Z,93790.94
2023-03-19T11:36:56.920Z,93785.63
2023-03-19T11:39:27.417Z,93782.38
2023-03-19T11:42:40.737Z,93774.31
2023-03-19T11:45:33.688Z,93773.09
2023-03-19T11:48:31.527Z,93778.56
2023-03-19T11:51:14.757Z,93749.28
2023-03-19T11:54:04.231Z,93745.97
2023-03-19T11:56:55.585Z,93747.88
2023-03-19T11:59:50.139Z,93749.97
2023-03-19T12:02:40.913Z,93743.19
2023-03-19T12:05:35.495Z,93747.50
2023-03-19T12:08:22.389Z,93714.78
2023-03-19T12:11:25.364Z,93720.22
2023-03-19T12:14:10.264Z,93727.63
2023-03-19T12:16:52.465Z,93742.91
2023-03-19T12:19:50.944Z,93741.13
2023-03-19T12:22:24.050Z,93712.88
2023-03-19T12:25:12.344Z,93734.78
2023-03-19T12:27:51.896Z,93722.91
2023-03-19T12:30:37.207Z,93730.38
2023-03-19T12:33:43.497Z,93718.41
2023-03-19T12:36:17.352Z,93692.34
2023-03-19T12:39:06.329Z,93720.94
2023-03-19T12:41:39.603Z,93713.63
2023-03-19T12:44:11.566Z,93720.19
2023-03-19T12:46:59.177Z,93716.03
2023-03-19T12:49:40.403Z,93716.38
2023-03-19T12:52:29.168Z,93710.56
2023-03-19T12:55:22.979Z,93708.94
2023-03-19T12:58:18.589Z,93710.13
2023-03-19T13:01:02.130Z,93699.88
2023-03-19T13:04:04.094Z,93699.38
2023-03-19T13:06:52.321Z,93698.69
2023-03-19T13:10:09.384Z,93697.34
2023-03-19T13:12:38.591Z,93697.31
2023-03-19T13:15:16.608Z,93682.94
2023-03-19T13:18:04.609Z,93689.28
2023-03-19T13:21:31.729Z,93690.22
2023-03-19T13:24:09.880Z,93689.00
2023-03-19T13:26:38.001Z,93662.53
2023-03-19T13:29:07.649Z,93685.31
2023-03-19T13:31:36.261Z,93670.91
2023-03-19T13:34:38.010Z,93686.78
2023-03-19T13:37:13.659Z,93665.16
2023-03-19T13:39:42.092Z,93684.66
2023-03-19T13:42:43.628Z,93685.19
2023-03-19T13:45:35.949Z,93683.72
2023-03-19T13:48:26.988Z,93684.47
2023-03-19T13:51:03.219Z,93685.41
2023-03-19T13:53:38.642Z,93662.53
2023-03-19T13:56:26.289Z,93661.69
2023-03-19T13:59:26.915Z,93682.41
2023-03-19T14:01:54.437Z,93677.28
2023-03-19T14:04:29.164Z,93659.31
2023-03-19T14:06:58.148Z,93657.81
2023-03-19T14:09:36.394Z,93642.78
2023-03-19T14:12:32.423Z,93670.25
2023-03-19T14:15:10.361Z,93664.63
2023-03-19T14:17:46.981Z,93658.41
2023-03-19T14:20:14.296Z,93665.28
2023-03-19T14:23:11.469Z,93667.91
2023-03-19T14:25:53.519Z,93663.16
2023-03-19T14:28:27.133Z,93663.94
2023-03-19T14:30:55.928Z,93656.25
2023-03-19T14:33:29.414Z,93636.16
2023-03-19T14:35:56.715Z,93636.50
2023-03-19T14:38:38.541Z,93664.34
2023-03-19T14:41:07.639Z,93648.84
2023-03-19T14:43:46.109Z,93669.44
2023-03-19T14:46:27.704Z,93660.75
2023-03-19T14:49:41.984Z,93656.44
2023-03-19T14:52:14.410Z,93661.38
2023-03-19T14:54:46.744Z,93645.88
2023-03-19T14:57:28.409Z,93659.63
2023-03-19T14:59:56.231Z,93631.78
2023-03-19T15:02:31.503Z,93656.25
2023-03-19T15:05:30.674Z,93657.28
2023-03-19T15:08:01.691Z,93638.75
2023-03-19T15:10:31.073Z,93657.16
2023-03-19T15:13:01.445Z,93635.59
2023-03-19T15:15:54.872Z,93663.19
2023-03-19T15:18:22.920Z,93656.59
2023-03-19T15:20:56.282Z,93646.56
2023-03-19T15:23:29.010Z,93660.28
2023-03-19T15:25:58.369Z,93668.47
2023-03-19T15:28:30.621Z,93675.91
2023-03-19T15:31:26.385Z,93662.38
2023-03-19T15:33:52.777Z,93670.44
2023-03-19T15:36:27.332Z,93664.50
2023-03-19T15:38:59.693Z,93671.03
2023-03-19T15:41:31.944Z,93664.34
2023-03-19T15:44:04.501Z,93652.91
2023-03-19T15:46:35.894Z,93663.63
2023-03-19T15:49:13.821Z,93651.84
2023-03-19T15:51:41.385Z,93660.88
2023-03-19T15:54:08.893Z,93683.09
2023-03-19T15:56:35.442Z,93657.38
2023-03-19T15:59:03.522Z,93679.78
2023-03-19T16:01:33.085Z,93678.28
2023-03-19T16:04:03.685Z,93660.22
2023-03-19T16:06:32.533Z,93678.00
2023-03-19T16:09:14.087Z,93681.03
2023-03-19T16:11:45.555Z,93688.94
2023-03-19T16:14:15.156Z,93690.16
2023-03-19T16:17:16.961Z,93700.78
2023-03-19T16:19:53.716Z,93697.41
2023-03-19T16:22:23.789Z,93697.22
2023-03-19T16:24:52.182Z,93699.34
2023-03-19T16:27:33.445Z,93682.19
2023-03-19T16:30:00.567Z,93698.91
2023-03-19T16:32:38.387Z,93684.00
2023-03-19T16:35:19.746Z,93682.72
2023-03-19T16:38:25.782Z,93689.56
2023-03-19T16:41:16.780Z,93720.88
2023-03-19T16:43:47.483Z,93716.50
2023-03-19T16:46:16.540Z,93720.75
2023-03-19T16:48:44.330Z,93727.88
2023-03-19T16:51:18.463Z,93734.47
2023-03-19T16:53:46.079Z,93732.22
2023-03-19T16:56:18.777Z,93731.00
2023-03-19T16:58:46.004Z,93749.09
2023-03-19T17:01:15.941Z,93749.44
2023-03-19T17:03:43.091Z,93739.06
2023-03-19T17:06:11.962Z,93735.50
2023-03-19T17:08:38.753Z,93757.25
2023-03-19T17:11:06.120Z,93747.75
2023-03-19T17:13:35.333Z,93741.84
2023-03-19T17:16:06.815Z,93757.13
2023-03-19T17:18:39.987Z,93759.28
2023-03-19T17:21:32.400Z,93780.25
2023-03-19T17:24:15.240Z,93783.50
2023-03-19T17:26:41.745Z,93748.72
2023-03-19T17:29:08.107Z,93768.38
2023-03-19T17:31:35.186Z,93789.56
2023-03-19T17:34:14.120Z,93789.13
2023-03-19T17:36:40.625Z,93795.25
2023-03-19T17:39:11.685Z,93787.81
2023-03-19T17:41:47.262Z,93787.69
2023-03-19T17:44:14.618Z,93795.72
2023-03-19T17:46:48.422Z,93808.19
2023-03-19T17:49:21.454Z,93808.63
2023-03-19T17:51:50.813Z,93790.13
2023-03-19T17:54:17.858Z,93793.75
2023-03-19T17:56:44.258Z,93809.03
2023-03-19T17:59:11.111Z,93833.56
2023-03-19T18:01:49.928Z,93808.22
2023-03-19T18:04:18.776Z,93832.53
2023-03-19T18:06:56.541Z,93826.63
2023-03-19T18:09:32.787Z,93827.88
2023-03-19T18:11:59.233Z,93833.50
2023-03-19T18:14:25.677Z,93821.03
2023-03-19T18:16:52.271Z,93833.03
2023-03-19T18:19:38.057Z,93838.97
2023-03-19T18:22:16.743Z,93837.75
2023-03-19T18:24:43.224Z,93830.72
2023-03-19T18:27:09.642Z,93838.31
2023-03-19T18:29:37.142Z,93819.84
2023-03-19T18:32:13.362Z,93840.25
2023-03-19T18:34:39.769Z,93839.19
2023-03-19T18:37:06.418Z,93866.09
2023-03-19T18:39:38.042Z,93844.13
2023-03-19T18:42:13.581Z,93862.97
2023-03-19T18:44:50.725Z,93860.28
2023-03-19T18:47:28.545Z,93862.97
2023-03-19T18:49:57.644Z,93853.09
2023-03-19T18:52:24.377Z,93863.25
2023-03-19T18:54:50.875Z,93859.38
2023-03-19T18:57:18.299Z,93847.78
2023-03-19T18:59:45.409Z,93857.53
2023-03-19T19:02:19.519Z,93891.56
2023-03-19T19:04:45.977Z,93876.03
2023-03-19T19:07:22.664Z,93885.00
2023-03-19T19:09:49.244Z,93875.56
2023-03-19T19:12:18.462Z,93894.28
2023-03-19T19:14:45.639Z,93906.94
2023-03-19T19:17:23.968Z,93910.19
2023-03-19T19:19:50.616Z,93901.09
2023-03-19T19:22:18.820Z,93887.44
2023-03-19T19:24:45.279Z,93895.50
2023-03-19T19:27:24.607Z,93909.41
2023-03-19T19:29:51.256Z,93924.53
2023-03-19T19:32:28.582Z,93927.25
2023-03-19T19:34:55.053Z,93930.47
2023-03-19T19:37:23.349Z,93922.53
2023-03-19T19:39:52.102Z,93944.50
2023-03-19T19:42:21.118Z,93946.22
2023-03-19T19:44:52.031Z,93923.00
2023-03-19T19:47:18.761Z,93951.16
2023-03-19T20:57:29.108Z,93995.84
2023-03-19T20:59:55.725Z,94009.28
2023-03-19T21:02:24.420Z,94014.53
2023-03-19T21:04:51.791Z,94000.53
2023-03-19T21:07:34.517Z,94020.78
2023-03-19T21:10:03.519Z,94027.63
2023-03-19T21:12:31.689Z,94020.56
2023-03-19T21:14:59.514Z,94010.41
2023-03-19T21:17:27.541Z,94033.00
2023-03-19T21:19:54.806Z,94029.06
2023-03-19T21:22:25.751Z,94000.38
2023-03-19T21:24:56.213Z,94030.34
2023-03-19T21:27:26.396Z,94025.13
2023-03-19T21:29:54.407Z,94030.59
2023-03-19T21:32:21.313Z,93986.72
2023-03-19T21:34:48.952Z,94027.09
2023-03-19T21:37:16.480Z,94011.31
2023-03-19T21:39:43.417Z,93990.31
2023-03-19T21:42:17.424Z,93994.44
2023-03-19T21:44:45.996Z,94000.16
2023-03-19T21:47:21.340Z,94027.63
2023-03-19T21:49:48.480Z,94004.00
2023-03-19T21:52:18.408Z,94037.59
2023-03-19T21:54:49.065Z,94018.41
2023-03-19T21:57:16.592Z,94035.91
2023-03-19T21:59:45.112Z,94030.19
2023-03-19T22:02:27.792Z,94022.78
2023-03-19T22:04:54.240Z,94017.41
2023-03-19T22:07:20.677Z,93974.88
2023-03-19T22:09:47.041Z,94002.69
2023-03-19T22:12:25.880Z,94007.09
2023-03-19T22:14:55.454Z,93988.69
2023-03-19T22:17:25.957Z,94019.75
2023-03-19T22:19:52.331Z,94008.25
2023-03-19T22:22:18.745Z,94013.25
2023-03-19T22:24:45.104Z,93949.59
2023-03-19T22:27:17.237Z,94038.25
2023-03-19T22:29:45.733Z,94038.34
2023-03-19T22:32:18.840Z,94035.75
2023-03-19T22:34:46.540Z,94010.78
2023-03-19T22:37:26.088Z,94041.31
2023-03-19T22:39:53.232Z,94029.25
2023-03-19T22:42:20.395Z,93966.25
2023-03-19T22:44:48.913Z,94035.00
2023-03-19T22:47:24.625Z,94014.91
2023-03-19T22:49:51.291Z,93992.13
2023-03-19T22:52:17.845Z,94002.72
2023-03-19T22:54:44.283Z,94028.91
2023-03-19T22:57:14.863Z,94014.91
2023-03-19T22:59:44.493Z,93972.03
2023-03-19T23:02:13.961Z,94012.22
2023-03-19T23:04:41.282Z,93997.13
2023-03-19T23:07:11.711Z,94022.25
2023-03-19T23:09:38.840Z,93994.97
2023-03-19T23:12:07.378Z,93978.63
2023-03-19T23:14:36.589Z,94021.31
2023-03-19T23:17:14.233Z,94029.44
2023-03-19T23:19:41.048Z,94024.59
2023-03-19T23:22:14.716Z,94026.09
2023-03-19T23:24:42.221Z,94026.44
2023-03-19T23:27:22.870Z,94033.56
2023-03-19T23:29:49.663Z,93988.44
2023-03-19T23:32:16.429Z,94013.06
2023-03-19T23:34:57.155Z,93984.56
2023-03-19T23:37:24.437Z,94014.44
2023-03-19T23:39:51.030Z,94017.06
2023-03-19T23:42:28.783Z,94034.22
2023-03-19T23:44:58.308Z,94011.22
2023-03-19T23:47:24.965Z,94022.47
2023-03-19T23:49:51.631Z,94004.84
2023-03-19T23:52:18.053Z,94036.66
2023-03-19T23:54:44.422Z,93999.81
2023-03-19T23:57:14.604Z,94042.78
2023-03-19T23:59:43.859Z,94043.53
